Friday, February 23, 2018, 3:05 PM EST
Back to Local

KHIE, Mt Washington Regional Airport

Location: Jefferson, NH, United States Lat: 44.367
Local Time: 3:05 PM EST (20:05 GMT) Lon: -71.55
Time Zone: US/Eastern Elev: 1072 ft

Show me the last for .
Show Decoded

2018-02-23 14:52 METAR KHIE 231952Z AUTO 15010KT 10SM OVC050 01/M10 A3032 RMK AO2 SLP285
                 T00111100 =
2018-02-23 13:52 METAR KHIE 231852Z AUTO 15010G22KT 10SM CLR 01/M11 A3033 RMK AO2 PRESFR SLP290
                 T00111111 =
2018-02-23 12:52 METAR KHIE 231752Z AUTO 15008G16KT 10SM BKN090 02/M11 A3043 RMK AO2 SLP323
                 T00171106 10017 21111 58043 =
2018-02-23 11:52 METAR KHIE 231652Z AUTO 29003KT 10SM BKN100 M01/M09 A3048 RMK AO2 SLP340
                 T10061089 =
2018-02-23 10:52 METAR KHIE 231552Z AUTO 00000KT 10SM CLR M02/M09 A3053 RMK AO2 SLP357 T10171094
                 =
2018-02-23 09:52 METAR KHIE 231452Z AUTO 00000KT 10SM CLR M04/M08 A3056 RMK AO2 SLP369 T10391083
                 58020 =
2018-02-23 08:52 METAR KHIE 231352Z AUTO 00000KT 10SM CLR M06/M08 A3059 RMK AO2 SLP380 T10561083
                 =
2018-02-23 07:52 METAR KHIE 231252Z AUTO 00000KT 10SM CLR M09/M09 A3060 RMK AO2 SLP384 T10891094
                 =
2018-02-23 06:52 METAR KHIE 231152Z AUTO 00000KT 10SM CLR M11/M12 A3062 RMK AO2 SLP392 I1000
                 I6000 T11111122 11083 21111 58009 =
2018-02-23 05:52 METAR KHIE 231052Z AUTO 00000KT 10SM CLR M11/M12 A3063 RMK AO2 SLP395 I1000
                 T11061122 =
2018-02-23 04:52 METAR KHIE 230952Z AUTO 00000KT 10SM CLR M11/M12 A3066 RMK AO2 SLP402 I1000
                 T11061122 =
2018-02-23 03:52 METAR KHIE 230852Z AUTO 00000KT 10SM CLR M10/M11 A3065 RMK AO2 SLP400 I1000
                 I3000 T11001111 56008 =
2018-02-23 02:52 METAR KHIE 230752Z AUTO 00000KT 10SM CLR M09/M11 A3065 RMK AO2 SLP400 I1000
                 T10891106 =
2018-02-23 01:52 METAR KHIE 230652Z AUTO 00000KT 10SM CLR M09/M11 A3066 RMK AO2 SLP403 I1000
                 T10891111 =
2018-02-23 00:52 METAR KHIE 230552Z AUTO 00000KT 10SM CLR M08/M11 A3068 RMK AO2 SLP408 I1001
                 I6001 T10831106 11028 21089 53003 =
2018-02-22 23:52 METAR KHIE 230452Z AUTO 00000KT 10SM CLR M08/M10 A3066 RMK AO2 SLP402 T10831100
                 400111083 =
2018-02-22 22:52 METAR KHIE 230352Z AUTO 00000KT 10SM CLR M08/M09 A3064 RMK AO2 SLP394 T10781094
                 =
2018-02-22 21:52 METAR KHIE 230252Z AUTO 00000KT 10SM CLR M07/M09 A3067 RMK AO2 SLP405 T10671094
                 53012 =
2018-02-22 20:52 METAR KHIE 230152Z AUTO 00000KT 10SM CLR M05/M09 A3065 RMK AO2 SLP397 T10501094
                 =
2018-02-22 19:52 METAR KHIE 230052Z AUTO 00000KT 10SM CLR M04/M08 A3063 RMK AO2 SLP392 T10391083
                 =
2018-02-22 18:52 METAR KHIE 222352Z AUTO 00000KT 10SM CLR M03/M08 A3063 RMK AO2 SLP390 T10281083
                 10000 21028 53003 =
2018-02-22 17:52 METAR KHIE 222252Z AUTO 00000KT 10SM CLR M01/M09 A3062 RMK AO2 SLP388 T10111089
                 =
2018-02-22 16:52 METAR KHIE 222152Z AUTO 00000KT 10SM BKN110 M01/M10 A3061 RMK AO2 SLP381
                 T10061100 =
2018-02-22 15:52 METAR KHIE 222052Z AUTO 04003KT 10SM OVC100 M01/M10 A3062 RMK AO2 SLP386
                 T10061100 53004 =

Support USWX by starting your Amazon purchase here.